createdAt,value
2019-06-26T00:00:47.721Z,100888
2019-06-26T00:03:17.477Z,100899
2019-06-26T00:05:46.335Z,100902
2019-06-26T00:08:15.927Z,100901
2019-06-26T00:10:47.058Z,100897
2019-06-26T00:13:25.627Z,100905
2019-06-26T00:15:44.795Z,100894
2019-06-26T00:18:13.668Z,100905
2019-06-26T00:20:43.243Z,100906
2019-06-26T00:23:12.848Z,100903
2019-06-26T00:25:41.726Z,100905
2019-06-26T00:28:10.558Z,100915
2019-06-26T00:30:39.390Z,100918
2019-06-26T00:33:08.223Z,100920
2019-06-26T00:35:38.300Z,100931
2019-06-26T00:38:07.245Z,100923
2019-06-26T00:40:36.077Z,100917
2019-06-26T00:43:05.304Z,100931
2019-06-26T00:45:33.777Z,100922
2019-06-26T00:48:03.375Z,100924
2019-06-26T00:50:32.206Z,100927
2019-06-26T00:53:01.783Z,100920
2019-06-26T00:55:31.373Z,100929
2019-06-26T00:58:00.772Z,100937
2019-06-26T01:00:30.538Z,100929
2019-06-26T01:02:59.408Z,100938
2019-06-26T01:05:28.303Z,100936
2019-06-26T01:07:57.372Z,100944
2019-06-26T01:10:26.203Z,100939
2019-06-26T01:12:56.475Z,100944
2019-06-26T01:15:25.328Z,100944
2019-06-26T01:17:54.185Z,100942
2019-06-26T01:20:23.767Z,100942
2019-06-26T01:22:52.627Z,100948
2019-06-26T01:25:21.457Z,100940
2019-06-26T01:27:51.187Z,100941
2019-06-26T01:30:19.875Z,100941
2019-06-26T01:32:49.275Z,100941
2019-06-26T01:35:18.676Z,100942
2019-06-26T01:37:48.276Z,100930
2019-06-26T01:40:17.862Z,100936
2019-06-26T01:42:46.705Z,100948
2019-06-26T01:45:15.540Z,100936
2019-06-26T01:47:44.397Z,100929
2019-06-26T01:50:13.230Z,100934
2019-06-26T01:52:42.818Z,100941
2019-06-26T01:55:12.784Z,100935
2019-06-26T01:57:41.634Z,100946
2019-06-26T02:00:11.062Z,100947
2019-06-26T02:02:39.896Z,100943
2019-06-26T02:05:08.755Z,100943
2019-06-26T02:07:37.602Z,100944
2019-06-26T02:12:49.008Z,100945
2019-06-26T02:15:18.594Z,100948
2019-06-26T02:17:47.431Z,100948
2019-06-26T02:20:16.797Z,100940
2019-06-26T02:22:45.642Z,100944
2019-06-26T02:25:15.784Z,100950
2019-06-26T02:27:44.626Z,100958
2019-06-26T02:30:13.988Z,100953
2019-06-26T02:32:44.394Z,100952
2019-06-26T02:35:13.243Z,100945
2019-06-26T02:37:42.100Z,100946
2019-06-26T02:40:10.989Z,100942
2019-06-26T02:42:40.704Z,100949
2019-06-26T02:45:09.547Z,100941
2019-06-26T02:47:39.596Z,100941
2019-06-26T02:50:08.434Z,100942
2019-06-26T02:52:37.500Z,100944
2019-06-26T02:55:07.091Z,100937
2019-06-26T02:57:35.971Z,100937
2019-06-26T03:00:05.082Z,100942
2019-06-26T03:02:33.792Z,100934
2019-06-26T03:05:02.863Z,100944
2019-06-26T03:07:31.504Z,100944
2019-06-26T03:10:00.346Z,100941
2019-06-26T03:12:29.190Z,100945
2019-06-26T03:15:08.213Z,100952
2019-06-26T03:17:27.806Z,100943
2019-06-26T03:19:56.649Z,100943
2019-06-26T03:22:25.472Z,100946
2019-06-26T03:24:54.313Z,100945
2019-06-26T03:27:23.892Z,100950
2019-06-26T03:29:52.741Z,100958
2019-06-26T03:32:21.582Z,100957
2019-06-26T03:34:51.508Z,100959
2019-06-26T03:37:20.016Z,100964
2019-06-26T03:39:48.860Z,100968
2019-06-26T03:42:17.704Z,100967
2019-06-26T03:44:46.534Z,100972
2019-06-26T03:47:15.384Z,100973
2019-06-26T03:49:44.257Z,100979
2019-06-26T03:52:13.078Z,100977
2019-06-26T03:54:42.024Z,100976
2019-06-26T03:57:10.866Z,100980
2019-06-26T03:59:39.712Z,100984
2019-06-26T04:02:11.979Z,100987
2019-06-26T04:04:40.812Z,100990
2019-06-26T04:07:10.018Z,100992
2019-06-26T04:09:38.839Z,100992
2019-06-26T04:12:07.695Z,100995
2019-06-26T04:14:36.542Z,100998
2019-06-26T04:17:05.378Z,100988
2019-06-26T04:19:34.805Z,100988
2019-06-26T04:22:03.676Z,100988
2019-06-26T04:24:32.514Z,100988
2019-06-26T04:27:01.354Z,100996
2019-06-26T04:29:30.206Z,101000
2019-06-26T04:32:00.320Z,101000
2019-06-26T04:34:29.165Z,101002
2019-06-26T04:36:59.552Z,101012
2019-06-26T04:39:28.411Z,101012
2019-06-26T04:41:57.266Z,101015
2019-06-26T04:44:26.106Z,101017
2019-06-26T04:46:54.994Z,101022
2019-06-26T04:49:23.815Z,101017
2019-06-26T04:51:52.652Z,101023
2019-06-26T04:54:21.477Z,101027
2019-06-26T04:56:50.326Z,101022
2019-06-26T04:59:19.170Z,101030
2019-06-26T05:01:48.597Z,101041
2019-06-26T05:04:18.184Z,101033
2019-06-26T05:06:47.053Z,101030
2019-06-26T05:09:16.475Z,101039
2019-06-26T05:11:44.684Z,101043
2019-06-26T05:14:13.517Z,101043
2019-06-26T05:16:42.348Z,101038
2019-06-26T05:19:12.096Z,101034
2019-06-26T05:21:40.795Z,101038
2019-06-26T05:24:09.626Z,101042
2019-06-26T05:26:39.218Z,101048
2019-06-26T05:29:08.086Z,101048
2019-06-26T05:31:36.971Z,101049
2019-06-26T05:34:05.792Z,101059
2019-06-26T05:36:34.661Z,101044
2019-06-26T05:39:03.470Z,101051
2019-06-26T05:41:32.314Z,101054
2019-06-26T05:44:01.150Z,101059
2019-06-26T05:46:31.815Z,101055
2019-06-26T05:48:59.582Z,101056
2019-06-26T05:51:29.537Z,101061
2019-06-26T05:53:58.495Z,101054
2019-06-26T05:56:27.221Z,101056
2019-06-26T05:58:56.060Z,101060
2019-06-26T06:01:26.042Z,101058
2019-06-26T06:03:54.875Z,101063
2019-06-26T06:06:23.718Z,101070
2019-06-26T06:08:52.566Z,101066
2019-06-26T06:11:21.401Z,101066
2019-06-26T06:13:50.596Z,101065
2019-06-26T06:16:19.422Z,101071
2019-06-26T06:18:48.286Z,101071
2019-06-26T06:21:18.060Z,101069
2019-06-26T06:23:48.719Z,101072
2019-06-26T06:26:15.906Z,101065
2019-06-26T06:28:45.463Z,101071
2019-06-26T06:31:14.384Z,101072
2019-06-26T06:33:43.143Z,101064
2019-06-26T06:36:11.979Z,101075
2019-06-26T06:38:40.839Z,101074
2019-06-26T06:41:09.676Z,101086
2019-06-26T06:43:38.513Z,101081
2019-06-26T06:46:07.363Z,101084
2019-06-26T06:48:36.210Z,101092
2019-06-26T06:51:05.796Z,101087
2019-06-26T06:53:34.639Z,101099
2019-06-26T06:56:03.474Z,101096
2019-06-26T06:58:32.357Z,101099
2019-06-26T07:01:01.146Z,101106
2019-06-26T07:03:29.978Z,101105
2019-06-26T07:05:58.823Z,101105
2019-06-26T07:08:28.415Z,101102
2019-06-26T07:10:57.485Z,101106
2019-06-26T07:13:26.585Z,101114
2019-06-26T07:15:55.244Z,101114
2019-06-26T07:18:24.075Z,101112
2019-06-26T07:20:53.287Z,101109
2019-06-26T07:23:22.145Z,101108
2019-06-26T07:25:50.974Z,101106
2019-06-26T07:28:20.599Z,101111
2019-06-26T07:30:49.881Z,101116
2019-06-26T07:33:19.269Z,101117
2019-06-26T07:35:49.685Z,101128
2019-06-26T07:38:18.543Z,101127
2019-06-26T07:40:47.412Z,101128
2019-06-26T07:43:17.002Z,101126
2019-06-26T07:45:46.101Z,101129
2019-06-26T07:48:14.939Z,101136
2019-06-26T07:50:43.783Z,101139
2019-06-26T07:53:13.423Z,101141
2019-06-26T07:55:42.317Z,101146
2019-06-26T07:58:11.849Z,101143
2019-06-26T08:00:43.356Z,101141
2019-06-26T08:03:14.715Z,101140
2019-06-26T08:05:43.244Z,101138
2019-06-26T08:08:14.496Z,101136
2019-06-26T08:10:40.000Z,101132
2019-06-26T08:13:11.558Z,101132
2019-06-26T08:15:42.134Z,101137
2019-06-26T08:18:11.393Z,101136
2019-06-26T08:20:55.089Z,101131
2019-06-26T08:23:09.478Z,101140
2019-06-26T08:25:38.321Z,101142
2019-06-26T08:28:07.169Z,101144
2019-06-26T08:30:36.741Z,101147
2019-06-26T08:33:05.569Z,101135
2019-06-26T08:35:35.141Z,101141
2019-06-26T08:38:10.956Z,101142
2019-06-26T08:40:32.820Z,101144
2019-06-26T08:43:01.692Z,101153
2019-06-26T08:45:30.544Z,101147
2019-06-26T08:48:13.423Z,101152
2019-06-26T08:50:28.221Z,101145
2019-06-26T08:52:57.573Z,101141
2019-06-26T08:55:26.288Z,101146
2019-06-26T08:57:55.119Z,101145
2019-06-26T09:00:23.963Z,101142
2019-06-26T09:02:52.817Z,101145
2019-06-26T09:05:21.665Z,101143
2019-06-26T09:07:50.561Z,101134
2019-06-26T09:10:19.338Z,101140
2019-06-26T09:12:48.177Z,101137
2019-06-26T09:15:17.014Z,101145
2019-06-26T09:17:45.854Z,101136
2019-06-26T09:20:14.695Z,101142
2019-06-26T09:22:43.520Z,101141
2019-06-26T09:25:21.763Z,101137
2019-06-26T09:27:41.749Z,101132
2019-06-26T09:30:10.588Z,101138
2019-06-26T09:32:39.432Z,101132
2019-06-26T09:35:08.422Z,101133
2019-06-26T09:37:37.256Z,101126
2019-06-26T09:40:06.103Z,101136
2019-06-26T09:42:35.754Z,101128
2019-06-26T09:45:04.609Z,101128
2019-06-26T09:47:33.434Z,101129
2019-06-26T09:50:02.309Z,101138
2019-06-26T09:52:32.939Z,101127
2019-06-26T09:55:00.489Z,101135
2019-06-26T09:57:29.323Z,101138
2019-06-26T09:59:59.116Z,101139
2019-06-26T10:02:27.969Z,101136
2019-06-26T10:04:56.777Z,101136
2019-06-26T10:07:27.445Z,101137
2019-06-26T10:09:55.115Z,101135
2019-06-26T10:12:24.536Z,101135
2019-06-26T10:14:54.131Z,101140
2019-06-26T10:17:22.960Z,101133
2019-06-26T10:19:54.039Z,101141
2019-06-26T10:22:20.654Z,101129
2019-06-26T10:24:49.470Z,101133
2019-06-26T10:27:18.296Z,101133
2019-06-26T10:29:47.135Z,101130
2019-06-26T10:32:15.974Z,101131
2019-06-26T10:34:44.826Z,101136
2019-06-26T10:37:13.661Z,101134
2019-06-26T10:39:44.072Z,101130
2019-06-26T10:42:12.878Z,101128
2019-06-26T10:44:41.747Z,101130
2019-06-26T10:47:10.772Z,101126
2019-06-26T10:49:39.452Z,101133
2019-06-26T10:52:09.037Z,101131
2019-06-26T10:54:38.461Z,101135
2019-06-26T10:57:07.653Z,101131
2019-06-26T10:59:37.548Z,101132
2019-06-26T11:02:06.083Z,101130
2019-06-26T11:04:34.976Z,101125
2019-06-26T11:07:05.703Z,101125
2019-06-26T11:09:35.051Z,101118
2019-06-26T11:12:04.653Z,101110
2019-06-26T11:14:33.555Z,101109
2019-06-26T11:17:02.351Z,101103
2019-06-26T11:19:43.227Z,101108
2019-06-26T11:22:01.371Z,101110
2019-06-26T11:24:30.939Z,101103
2019-06-26T11:26:59.795Z,101108
2019-06-26T11:29:28.627Z,101102
2019-06-26T11:31:58.220Z,101095
2019-06-26T11:34:27.057Z,101111
2019-06-26T11:37:03.964Z,101100
2019-06-26T11:39:24.762Z,101106
2019-06-26T11:41:53.604Z,101093
2019-06-26T11:44:22.439Z,101094
2019-06-26T11:46:51.277Z,101096
2019-06-26T11:49:20.869Z,101096
2019-06-26T11:51:49.712Z,101089
2019-06-26T11:54:18.547Z,101089
2019-06-26T11:56:47.406Z,101088
2019-06-26T11:59:16.258Z,101086
2019-06-26T12:01:45.140Z,101086
2019-06-26T12:04:13.983Z,101083
2019-06-26T12:06:45.952Z,101077
2019-06-26T12:09:11.856Z,101077
2019-06-26T12:11:40.719Z,101071
2019-06-26T12:14:10.308Z,101063
2019-06-26T12:16:39.115Z,101072
2019-06-26T12:19:08.032Z,101067
2019-06-26T12:21:37.571Z,101071
2019-06-26T12:24:06.403Z,101072
2019-06-26T12:26:35.244Z,101072
2019-06-26T12:29:05.102Z,101066
2019-06-26T12:31:33.941Z,101071
2019-06-26T12:34:03.703Z,101065
2019-06-26T12:36:32.527Z,101068
2019-06-26T12:39:01.394Z,101067
2019-06-26T12:41:30.230Z,101064
2019-06-26T12:44:00.191Z,101059
2019-06-26T12:46:29.732Z,101064
2019-06-26T12:48:58.621Z,101067
2019-06-26T12:51:27.506Z,101056
2019-06-26T12:53:58.491Z,101057
2019-06-26T12:56:25.161Z,101058
2019-06-26T12:58:53.974Z,101054
2019-06-26T13:01:25.284Z,101059
2019-06-26T13:03:53.169Z,101045
2019-06-26T13:06:22.010Z,101050
2019-06-26T13:08:51.615Z,101052
2019-06-26T13:11:22.365Z,101053
2019-06-26T13:14:02.186Z,101049
2019-06-26T13:16:21.152Z,101056
2019-06-26T13:18:50.040Z,101045
2019-06-26T13:21:18.827Z,101033
2019-06-26T13:23:47.684Z,101028
2019-06-26T13:26:16.509Z,101035
2019-06-26T13:28:45.553Z,101028
2019-06-26T13:31:14.399Z,101033
2019-06-26T13:33:43.998Z,101028
2019-06-26T13:36:12.835Z,101020
2019-06-26T13:38:41.695Z,101023
2019-06-26T13:41:10.531Z,101020
2019-06-26T13:43:39.422Z,101012
2019-06-26T13:46:08.235Z,101019
2019-06-26T13:48:37.079Z,101015
2019-06-26T13:51:09.802Z,101021
2019-06-26T13:53:34.798Z,101017
2019-06-26T13:56:03.625Z,101014
2019-06-26T13:58:34.004Z,101012
2019-06-26T14:01:02.854Z,101009
2019-06-26T14:03:31.823Z,101004
2019-06-26T14:06:01.411Z,101006
2019-06-26T14:08:32.886Z,101003
2019-06-26T14:10:59.866Z,100997
2019-06-26T14:13:29.131Z,100997
2019-06-26T14:15:58.021Z,101010
2019-06-26T14:18:30.190Z,100994
2019-06-26T14:20:55.705Z,100985
2019-06-26T14:23:24.550Z,100986
2019-06-26T14:25:53.377Z,100988
2019-06-26T14:28:22.201Z,100983
2019-06-26T14:30:51.043Z,100984
2019-06-26T14:33:19.891Z,100981
2019-06-26T14:35:48.730Z,100979
2019-06-26T14:38:17.563Z,100983
2019-06-26T14:40:48.424Z,100980
2019-06-26T14:43:17.263Z,100977
2019-06-26T14:45:46.097Z,100978
2019-06-26T14:48:14.930Z,100979
2019-06-26T14:50:43.764Z,100975
2019-06-26T14:53:12.602Z,100982
2019-06-26T14:55:41.424Z,100982
2019-06-26T14:58:10.509Z,100967
2019-06-26T15:00:39.334Z,100973
2019-06-26T15:03:08.164Z,100975
2019-06-26T15:05:37.012Z,100974
2019-06-26T15:08:05.868Z,100974
2019-06-26T15:10:35.123Z,100971
2019-06-26T15:13:05.186Z,100974
2019-06-26T15:15:34.038Z,100971
2019-06-26T15:18:03.758Z,100969
2019-06-26T15:20:32.612Z,100959
2019-06-26T15:23:01.464Z,100960
2019-06-26T15:25:30.532Z,100953
2019-06-26T15:27:59.124Z,100954
2019-06-26T15:30:28.472Z,100950
2019-06-26T15:32:57.315Z,100953
2019-06-26T15:35:26.183Z,100947
2019-06-26T15:37:55.033Z,100942
2019-06-26T15:40:23.884Z,100941
2019-06-26T15:42:52.757Z,100948
2019-06-26T15:45:21.589Z,100942
2019-06-26T15:47:50.501Z,100936
2019-06-26T15:50:19.252Z,100940
2019-06-26T15:52:48.100Z,100942
2019-06-26T15:55:17.303Z,100939
2019-06-26T15:57:46.487Z,100936
2019-06-26T16:00:15.348Z,100937
2019-06-26T16:02:44.901Z,100931
2019-06-26T16:05:13.745Z,100933
2019-06-26T16:07:42.594Z,100932
2019-06-26T16:10:12.018Z,100931
2019-06-26T16:12:40.877Z,100923
2019-06-26T16:15:09.705Z,100926
2019-06-26T16:17:42.435Z,100923
2019-06-26T16:20:11.272Z,100930
2019-06-26T16:22:40.117Z,100917
2019-06-26T16:25:09.290Z,100917
2019-06-26T16:27:38.134Z,100924
2019-06-26T16:30:07.743Z,100919
2019-06-26T16:32:36.586Z,100918
2019-06-26T16:35:06.613Z,100916
2019-06-26T16:37:35.197Z,100913
2019-06-26T16:40:04.078Z,100915
2019-06-26T16:42:32.903Z,100919
2019-06-26T16:45:02.504Z,100905
2019-06-26T16:47:31.344Z,100908
2019-06-26T16:50:00.196Z,100903
2019-06-26T16:52:29.787Z,100907
2019-06-26T16:54:58.618Z,100901
2019-06-26T16:57:27.490Z,100900
2019-06-26T17:00:08.999Z,100902
2019-06-26T17:02:26.512Z,100905
2019-06-26T17:04:55.366Z,100895
2019-06-26T17:07:24.955Z,100891
2019-06-26T17:09:54.417Z,100894
2019-06-26T17:12:23.249Z,100894
2019-06-26T17:14:52.106Z,100902
2019-06-26T17:17:24.066Z,100886
2019-06-26T17:19:52.913Z,100890
2019-06-26T17:22:21.745Z,100890
2019-06-26T17:24:50.625Z,100892
2019-06-26T17:27:19.467Z,100891
2019-06-26T17:29:48.948Z,100890
2019-06-26T17:32:18.677Z,100891
2019-06-26T17:34:47.559Z,100895
2019-06-26T17:37:16.404Z,100894
2019-06-26T17:39:45.275Z,100890
2019-06-26T17:42:14.134Z,100895
2019-06-26T17:44:43.034Z,100892
2019-06-26T17:47:12.852Z,100889
2019-06-26T17:49:42.525Z,100885
2019-06-26T17:52:11.357Z,100884
2019-06-26T17:54:40.458Z,100885
2019-06-26T17:57:10.368Z,100891
2019-06-26T17:59:39.944Z,100894
2019-06-26T18:02:08.767Z,100897
2019-06-26T18:04:38.353Z,100894
2019-06-26T18:07:07.210Z,100898
2019-06-26T18:09:36.048Z,100889
2019-06-26T18:12:05.635Z,100885
2019-06-26T18:14:35.230Z,100884
2019-06-26T18:17:04.104Z,100890
2019-06-26T18:19:32.913Z,100894
2019-06-26T18:22:02.360Z,100896
2019-06-26T18:24:31.204Z,100896
2019-06-26T18:27:01.069Z,100894
2019-06-26T18:29:29.891Z,100896
2019-06-26T18:31:58.730Z,100894
2019-06-26T18:34:27.598Z,100897
2019-06-26T18:36:56.440Z,100899
2019-06-26T18:39:25.543Z,100909
2019-06-26T18:41:55.086Z,100904
2019-06-26T18:44:23.943Z,100910
2019-06-26T18:46:52.799Z,100912
2019-06-26T18:49:21.620Z,100908
2019-06-26T18:51:50.450Z,100916
2019-06-26T18:54:20.047Z,100912
2019-06-26T18:56:48.894Z,100907
2019-06-26T18:59:17.760Z,100916
2019-06-26T19:01:46.611Z,100919
2019-06-26T19:04:15.459Z,100921
2019-06-26T19:06:45.677Z,100918
2019-06-26T19:09:14.507Z,100928
2019-06-26T19:11:43.390Z,100918
2019-06-26T19:14:12.780Z,100927
2019-06-26T19:16:43.423Z,100925
2019-06-26T19:19:12.340Z,100922
2019-06-26T19:21:39.764Z,100923
2019-06-26T19:24:10.439Z,100926
2019-06-26T19:26:37.468Z,100929
2019-06-26T19:29:06.308Z,100929
2019-06-26T19:31:35.186Z,100925
2019-06-26T19:34:04.179Z,100936
2019-06-26T19:36:48.801Z,100937
2019-06-26T19:39:01.900Z,100945
2019-06-26T19:41:30.748Z,100940
2019-06-26T19:43:59.588Z,100941
2019-06-26T19:46:28.459Z,100948
2019-06-26T19:48:57.746Z,100935
2019-06-26T19:51:32.206Z,100942
2019-06-26T19:54:01.046Z,100947
2019-06-26T19:56:30.296Z,100943
2019-06-26T19:58:59.136Z,100955
2019-06-26T20:01:27.979Z,100952
2019-06-26T20:03:57.236Z,100957
2019-06-26T20:06:26.071Z,100954
2019-06-26T20:08:57.655Z,100958
2019-06-26T20:11:23.739Z,100963
2019-06-26T20:13:54.275Z,100961
2019-06-26T20:16:21.468Z,100965
2019-06-26T20:18:50.320Z,100959
2019-06-26T20:23:58.931Z,100959
2019-06-26T20:26:27.752Z,100960
2019-06-26T20:28:56.605Z,100962
2019-06-26T20:31:25.954Z,100965
2019-06-26T20:33:54.350Z,100966
2019-06-26T20:36:23.614Z,100965
2019-06-26T20:38:52.476Z,100966
2019-06-26T20:41:21.328Z,100973
2019-06-26T20:43:50.187Z,100982
2019-06-26T20:46:19.044Z,100985
2019-06-26T20:48:47.924Z,100985
2019-06-26T20:51:20.562Z,100982
2019-06-26T20:53:46.319Z,100987
2019-06-26T20:56:15.166Z,100984
2019-06-26T20:58:44.030Z,100979
2019-06-26T21:01:12.867Z,100984
2019-06-26T21:03:41.722Z,100989
2019-06-26T21:06:10.646Z,100986
2019-06-26T21:08:39.444Z,100991
2019-06-26T21:11:08.270Z,100992
2019-06-26T21:13:37.997Z,100991
2019-06-26T21:16:06.838Z,100993
2019-06-26T21:18:36.874Z,100998
2019-06-26T21:21:04.727Z,100996
2019-06-26T21:23:33.362Z,101003
2019-06-26T21:26:02.908Z,100997
2019-06-26T21:28:33.836Z,101005
2019-06-26T21:31:02.624Z,100996
2019-06-26T21:33:31.460Z,100998
2019-06-26T21:36:01.364Z,101002
2019-06-26T21:38:30.956Z,101006
2019-06-26T21:41:00.675Z,100994
2019-06-26T21:43:29.654Z,100997
2019-06-26T21:45:58.531Z,100999
2019-06-26T21:48:27.464Z,101003
2019-06-26T21:50:58.392Z,101005
2019-06-26T21:53:26.649Z,101006
2019-06-26T21:57:16.249Z,101013
2019-06-26T21:59:45.856Z,101016
2019-06-26T22:02:14.706Z,101020
2019-06-26T22:04:43.556Z,101018
2019-06-26T22:07:12.398Z,101019
2019-06-26T22:09:41.251Z,101014
2019-06-26T22:12:10.090Z,101017
2019-06-26T22:14:40.505Z,101008
2019-06-26T22:17:09.338Z,101012
2019-06-26T22:19:38.187Z,101013
2019-06-26T22:22:07.038Z,101021
2019-06-26T22:24:35.890Z,101013
2019-06-26T22:27:05.475Z,101023
2019-06-26T22:29:34.323Z,101014
2019-06-26T22:32:03.171Z,101014
2019-06-26T22:34:32.008Z,101014
2019-06-26T22:37:00.844Z,101017
2019-06-26T22:39:29.708Z,101007
2019-06-26T22:41:58.528Z,101023
2019-06-26T22:44:28.154Z,101020
2019-06-26T22:46:57.092Z,101013
2019-06-26T22:49:26.140Z,101029
2019-06-26T22:51:54.949Z,101015
2019-06-26T22:54:23.799Z,101021
2019-06-26T22:56:52.647Z,101028
2019-06-26T22:59:21.511Z,101026
2019-06-26T23:01:50.342Z,101029
2019-06-26T23:04:19.227Z,101032
2019-06-26T23:06:48.014Z,101032
2019-06-26T23:09:16.848Z,101025
2019-06-26T23:11:45.696Z,101031
2019-06-26T23:14:15.094Z,101037
2019-06-26T23:16:44.087Z,101041
2019-06-26T23:19:15.027Z,101032
2019-06-26T23:21:41.785Z,101041
2019-06-26T23:24:10.641Z,101037
2019-06-26T23:26:39.491Z,101040
2019-06-26T23:29:08.344Z,101034
2019-06-26T23:31:37.186Z,101032
2019-06-26T23:34:06.025Z,101041
2019-06-26T23:36:34.874Z,101039
2019-06-26T23:39:03.969Z,101039
2019-06-26T23:41:32.815Z,101043
2019-06-26T23:44:02.409Z,101038
2019-06-26T23:46:31.254Z,101036
2019-06-26T23:49:00.565Z,101037
2019-06-26T23:51:29.437Z,101043
2019-06-26T23:53:58.241Z,101046
2019-06-26T23:56:40.075Z,101045
2019-06-26T23:58:56.469Z,101048
